Time;durP1;ratioP1;P1;durP2;ratioP2;P2;SDS_P1;SDS_P2;PMS_P1;PMS_P2;Temp;Humidity;BMP_temperature;BMP_pressure;BME280_temperature;BME280_humidity;BME280_pressure;Samples;Min_cycle;Max_cycle;Signal;HPM_P1;HPM_P2
2022/09/05 00:00:18;;;;;;;9.50;6.63;;;23.30;89.40;;;;;;5111689;27;20645;-70
2022/09/05 00:03:03;;;;;;;8.77;6.07;;;23.30;89.50;;;;;;5114634;28;20646;-70
2022/09/05 00:05:52;;;;;;;7.43;6.47;;;23.20;89.60;;;;;;5104509;28;20524;-70
2022/09/05 00:08:41;;;;;;;12.50;8.27;;;23.20;89.70;;;;;;5091462;27;20200;-71
2022/09/05 00:11:57;;;;;;;9.47;7.00;;;23.20;89.70;;;;;;5119510;27;20247;-70
2022/09/05 00:14:30;;;;;;;8.60;7.03;;;23.20;89.60;;;;;;5116195;27;20257;-71
2022/09/05 00:17:28;;;;;;;8.00;6.90;;;23.10;89.60;;;;;;5117867;27;20287;-70
2022/09/05 00:20:42;;;;;;;12.53;7.53;;;23.10;89.70;;;;;;5090568;28;20300;-70
2022/09/05 00:23:59;;;;;;;8.43;7.40;;;23.10;89.90;;;;;;5112730;27;20257;-70
2022/09/05 00:27:15;;;;;;;7.50;6.80;;;23.00;89.90;;;;;;5112184;27;20265;-71
2022/09/05 00:30:13;;;;;;;8.47;7.67;;;23.00;90.00;;;;;;5096918;27;20215;-70
2022/09/05 00:33:03;;;;;;;9.03;8.13;;;22.90;90.10;;;;;;5114360;27;20199;-71
2022/09/05 00:35:58;;;;;;;8.80;7.53;;;22.90;90.20;;;;;;5102812;27;20290;-71
2022/09/05 00:38:28;;;;;;;8.13;7.00;;;22.80;90.40;;;;;;5112750;27;20196;-71
2022/09/05 00:41:16;;;;;;;9.70;7.23;;;22.80;90.40;;;;;;5122215;27;20264;-70
2022/09/05 00:43:48;;;;;;;8.50;7.50;;;22.80;90.40;;;;;;5117620;27;20323;-70
2022/09/05 00:46:24;;;;;;;13.17;7.93;;;22.80;90.40;;;;;;5106448;28;20196;-71
2022/09/05 00:49:22;;;;;;;9.00;8.00;;;22.80;90.40;;;;;;5096972;28;20625;-70
2022/09/05 00:52:08;;;;;;;9.40;7.00;;;22.70;90.40;;;;;;5123460;27;20229;-71
2022/09/05 00:54:56;;;;;;;11.40;8.10;;;22.70;90.40;;;;;;5115795;27;20290;-70
2022/09/05 00:57:55;;;;;;;12.40;8.43;;;22.70;90.40;;;;;;5118584;27;20536;-70
2022/09/05 01:00:32;;;;;;;9.37;8.43;;;22.70;90.50;;;;;;5116971;27;20207;-71
2022/09/05 01:03:39;;;;;;;9.97;8.80;;;22.70;90.60;;;;;;5096613;28;20723;-70
2022/09/05 01:06:41;;;;;;;9.30;8.23;;;22.70;90.70;;;;;;5116659;28;20676;-70
2022/09/05 01:09:30;;;;;;;9.07;8.17;;;22.60;90.70;;;;;;5082974;28;20213;-70
2022/09/05 01:12:32;;;;;;;11.17;8.80;;;22.60;90.70;;;;;;5108789;28;20189;-71
2022/09/05 01:15:18;;;;;;;11.37;8.57;;;22.50;90.80;;;;;;5078571;28;20204;-70
2022/09/05 01:18:00;;;;;;;9.77;8.80;;;22.40;90.90;;;;;;5098725;28;20211;-70
2022/09/05 01:20:35;;;;;;;9.63;7.87;;;22.40;91.00;;;;;;5114867;28;20598;-70
2022/09/05 01:23:25;;;;;;;9.40;8.40;;;22.40;91.00;;;;;;5109009;27;20240;-70
2022/09/05 01:26:39;;;;;;;8.80;7.90;;;22.30;91.00;;;;;;5125102;27;20832;-70
2022/09/05 01:29:10;;;;;;;8.63;7.33;;;22.30;91.00;;;;;;5116245;27;20204;-70
2022/09/05 01:31:56;;;;;;;9.40;8.10;;;22.30;90.90;;;;;;5111100;28;20207;-70
2022/09/05 01:34:46;;;;;;;7.93;7.30;;;22.20;90.90;;;;;;5122542;27;20203;-70
2022/09/05 01:37:21;;;;;;;8.97;7.77;;;22.30;90.90;;;;;;5123492;27;20196;-70
2022/09/05 01:40:18;;;;;;;12.40;9.57;;;22.20;90.90;;;;;;5117651;27;20668;-70
2022/09/05 01:43:17;;;;;;;9.87;7.60;;;22.20;91.00;;;;;;5118979;27;20204;-70
2022/09/05 01:45:50;;;;;;;8.87;7.97;;;22.20;91.10;;;;;;5073560;27;20218;-70
2022/09/05 01:48:39;;;;;;;8.57;7.73;;;22.20;91.10;;;;;;5121382;27;20501;-70
2022/09/05 01:51:51;;;;;;;12.90;9.23;;;22.10;91.10;;;;;;5125376;27;20220;-70
2022/09/05 01:54:47;;;;;;;10.47;9.47;;;22.10;91.10;;;;;;5087530;28;20212;-70
2022/09/05 01:57:47;;;;;;;15.03;10.53;;;22.00;91.20;;;;;;5121301;27;20599;-70
2022/09/05 02:00:37;;;;;;;10.63;9.60;;;22.00;91.30;;;;;;5064100;27;20224;-70
2022/09/05 02:03:32;;;;;;;10.30;9.30;;;22.00;91.60;;;;;;5125548;27;20203;-70
2022/09/05 02:06:26;;;;;;;10.53;9.03;;;22.00;91.70;;;;;;5103790;27;20242;-70
2022/09/05 02:09:30;;;;;;;9.70;8.73;;;22.00;91.70;;;;;;5096454;27;20201;-70
2022/09/05 02:12:22;;;;;;;12.13;9.40;;;22.00;91.70;;;;;;5115295;27;20230;-70
2022/09/05 02:15:14;;;;;;;12.40;9.17;;;22.00;91.50;;;;;;5107456;27;20216;-70
2022/09/05 02:17:41;;;;;;;15.07;11.63;;;22.00;91.30;;;;;;5092538;27;20208;-70
2022/09/05 02:20:30;;;;;;;14.57;11.17;;;21.90;91.50;;;;;;5086477;28;20660;-70
2022/09/05 02:23:03;;;;;;;14.80;12.13;;;21.80;91.90;;;;;;5103667;27;20238;-71
2022/09/05 02:26:11;;;;;;;12.47;11.17;;;21.80;92.20;;;;;;5106357;27;20634;-70
2022/09/05 02:28:50;;;;;;;11.87;10.77;;;21.80;92.40;;;;;;5124135;27;20195;-70
2022/09/05 02:31:49;;;;;;;12.73;11.47;;;21.80;92.50;;;;;;5116210;27;20208;-70
2022/09/05 02:34:40;;;;;;;12.73;11.43;;;21.80;92.50;;;;;;5118134;27;20205;-71
2022/09/05 02:37:28;;;;;;;13.20;11.50;;;21.90;92.40;;;;;;5109980;27;20192;-70
2022/09/05 02:40:35;;;;;;;13.77;12.17;;;21.80;92.30;;;;;;5121194;27;20514;-70
2022/09/05 02:43:36;;;;;;;12.70;11.50;;;21.90;92.50;;;;;;5118901;27;20203;-70
2022/09/05 02:46:34;;;;;;;14.83;12.30;;;21.80;92.10;;;;;;5121904;27;20199;-69
2022/09/05 02:49:08;;;;;;;16.77;13.57;;;21.70;92.20;;;;;;5119010;27;20192;-69
2022/09/05 02:52:06;;;;;;;12.90;11.70;;;21.70;92.50;;;;;;5101594;27;20711;-70
2022/09/05 02:54:55;;;;;;;13.17;11.87;;;21.70;92.60;;;;;;5106222;27;20558;-70
2022/09/05 02:58:09;;;;;;;12.07;10.83;;;21.70;92.60;;;;;;5097958;28;20202;-70
2022/09/05 03:01:13;;;;;;;15.73;13.90;;;21.70;92.50;;;;;;5098918;27;20229;-70
2022/09/05 03:04:05;;;;;;;14.20;12.87;;;21.70;92.60;;;;;;5097019;27;20207;-70
2022/09/05 03:06:45;;;;;;;15.47;12.93;;;21.70;92.60;;;;;;5120752;27;20203;-69
2022/09/05 03:09:35;;;;;;;13.57;12.17;;;21.70;92.60;;;;;;5118596;27;20791;-70
2022/09/05 03:12:14;;;;;;;13.03;11.80;;;21.70;92.60;;;;;;5123841;27;20561;-70
2022/09/05 03:15:12;;;;;;;13.17;12.00;;;21.70;92.50;;;;;;5121413;27;20207;-69
2022/09/05 03:17:48;;;;;;;13.83;12.50;;;21.60;92.40;;;;;;5115032;27;20210;-69
2022/09/05 03:20:36;;;;;;;16.87;12.83;;;21.60;92.40;;;;;;5119637;27;20247;-69
2022/09/05 03:23:29;;;;;;;15.57;12.67;;;21.60;92.40;;;;;;5102361;27;20798;-70
2022/09/05 03:26:20;;;;;;;13.90;12.40;;;21.60;92.30;;;;;;5119682;27;20220;-70
2022/09/05 03:28:59;;;;;;;14.93;11.57;;;21.60;92.40;;;;;;5117641;27;20518;-69
2022/09/05 03:32:17;;;;;;;18.27;12.07;;;21.60;92.30;;;;;;5119659;27;20228;-69
2022/09/05 03:34:47;;;;;;;13.03;11.77;;;21.50;92.30;;;;;;5052430;28;20311;-70
2022/09/05 03:37:51;;;;;;;14.40;13.07;;;21.50;92.30;;;;;;5117024;27;20283;-69
2022/09/05 03:41:05;;;;;;;15.47;13.60;;;21.50;92.40;;;;;;5108081;27;20214;-70
2022/09/05 03:43:47;;;;;;;15.93;12.07;;;21.50;92.40;;;;;;4997547;28;20203;-70
2022/09/05 03:46:23;;;;;;;14.00;12.57;;;21.40;92.40;;;;;;5120436;27;20204;-70
2022/09/05 03:49:15;;;;;;;16.67;12.83;;;21.40;92.40;;;;;;5118600;27;20252;-70
2022/09/05 03:52:14;;;;;;;13.93;12.60;;;21.40;92.40;;;;;;5120950;27;20223;-70
2022/09/05 03:55:04;;;;;;;15.87;13.27;;;21.40;92.30;;;;;;5102803;28;20205;-69
2022/09/05 03:58:23;;;;;;;15.67;14.00;;;21.30;92.30;;;;;;5125174;27;20191;-70
2022/09/05 04:01:19;;;;;;;16.47;14.77;;;21.30;92.30;;;;;;5120510;27;20204;-69
2022/09/05 04:04:36;;;;;;;17.17;15.23;;;21.30;92.30;;;;;;5101867;28;20641;-69
2022/09/05 04:07:26;;;;;;;20.00;17.87;;;21.30;92.50;;;;;;5108677;28;20208;-69
2022/09/05 04:10:26;;;;;;;19.20;17.07;;;21.20;92.60;;;;;;5116451;27;20640;-69
2022/09/05 04:13:15;;;;;;;17.97;16.03;;;21.20;92.90;;;;;;5124304;27;20199;-69
2022/09/05 04:16:12;;;;;;;21.33;19.23;;;21.20;93.00;;;;;;5102012;27;20253;-70
2022/09/05 04:19:03;;;;;;;19.67;17.67;;;21.20;93.10;;;;;;5118860;27;20239;-70
2022/09/05 04:21:43;;;;;;;22.03;18.10;;;21.30;93.20;;;;;;5119017;27;20546;-70
2022/09/05 04:24:24;;;;;;;17.37;15.67;;;21.30;93.30;;;;;;5096952;27;20507;-69
2022/09/05 04:26:59;;;;;;;17.47;15.60;;;21.30;93.30;;;;;;5120994;27;20199;-70
2022/09/05 04:29:41;;;;;;;17.80;15.97;;;21.30;93.30;;;;;;5106019;27;20266;-70
2022/09/05 04:32:34;;;;;;;17.50;15.70;;;21.30;93.20;;;;;;5104311;27;20223;-70
2022/09/05 04:35:21;;;;;;;19.57;16.17;;;21.30;93.20;;;;;;5115464;27;20645;-70
2022/09/05 04:38:12;;;;;;;17.90;16.20;;;21.30;93.10;;;;;;5119422;27;20194;-70
2022/09/05 04:40:39;;;;;;;16.93;15.00;;;21.30;93.00;;;;;;5117104;27;20512;-70
2022/09/05 04:43:44;;;;;;;12.87;11.63;;;21.30;93.00;;;;;;5114092;27;20207;-70
2022/09/05 04:46:46;;;;;;;15.63;14.13;;;21.30;92.90;;;;;;5037116;28;20211;-70
2022/09/05 04:49:30;;;;;;;17.13;15.43;;;21.30;92.80;;;;;;5062675;27;20233;-70
2022/09/05 04:52:14;;;;;;;18.97;16.97;;;21.20;92.70;;;;;;5106581;27;20224;-70
2022/09/05 04:55:20;;;;;;;19.30;16.60;;;21.30;92.80;;;;;;5127963;27;20520;-71
2022/09/05 04:57:54;;;;;;;18.80;16.80;;;21.30;93.00;;;;;;5082358;28;20218;-70
2022/09/05 05:00:53;;;;;;;19.23;17.33;;;21.20;92.90;;;;;;5088008;27;20208;-70
2022/09/05 05:03:41;;;;;;;17.27;15.57;;;21.30;93.10;;;;;;5110185;28;20206;-70
2022/09/05 05:06:33;;;;;;;20.03;15.50;;;21.30;93.20;;;;;;5112098;28;20322;-70
2022/09/05 05:09:29;;;;;;;18.97;15.60;;;21.40;93.20;;;;;;5104551;28;20190;-70
2022/09/05 05:12:19;;;;;;;17.80;15.77;;;21.40;93.20;;;;;;5117885;28;20223;-70
2022/09/05 05:15:16;;;;;;;15.93;14.10;;;21.50;93.20;;;;;;5106905;28;20201;-70
2022/09/05 05:18:26;;;;;;;14.97;13.50;;;21.50;93.00;;;;;;5123313;28;20220;-69
2022/09/05 05:21:28;;;;;;;14.90;11.33;;;21.50;92.80;;;;;;5104356;28;20235;-70
2022/09/05 05:24:00;;;;;;;12.00;10.50;;;21.50;92.70;;;;;;5125123;28;20633;-70
2022/09/05 05:26:35;;;;;;;12.10;10.77;;;21.70;92.30;;;;;;5126014;28;20218;-70
2022/09/05 05:29:14;;;;;;;11.20;10.00;;;21.80;91.90;;;;;;5115680;28;20203;-70
2022/09/05 05:31:56;;;;;;;12.17;10.77;;;21.90;91.80;;;;;;5121120;28;20280;-70
2022/09/05 05:34:32;;;;;;;10.20;9.20;;;21.90;91.70;;;;;;5098336;28;20539;-70
2022/09/05 05:37:15;;;;;;;9.23;8.43;;;21.90;91.70;;;;;;5119285;28;20218;-70
2022/09/05 05:39:47;;;;;;;9.77;8.83;;;22.00;91.60;;;;;;5122234;28;20196;-70
2022/09/05 05:42:21;;;;;;;9.23;8.37;;;22.00;91.50;;;;;;5111765;28;20201;-70
2022/09/05 05:44:54;;;;;;;7.97;7.17;;;22.10;91.40;;;;;;5123443;28;20622;-70
2022/09/05 05:47:42;;;;;;;10.33;7.70;;;22.20;91.30;;;;;;5104723;28;20260;-70
2022/09/05 05:50:20;;;;;;;8.87;7.57;;;22.20;91.10;;;;;;5120652;28;20743;-70
2022/09/05 05:53:05;;;;;;;11.30;7.87;;;22.30;90.90;;;;;;5119067;28;20238;-70
2022/09/05 05:55:46;;;;;;;7.27;6.63;;;22.40;90.70;;;;;;5101236;28;20250;-70
2022/09/05 05:58:27;;;;;;;8.70;7.53;;;22.50;90.50;;;;;;5108499;28;20219;-70
2022/09/05 06:01:29;;;;;;;8.40;7.63;;;22.60;90.40;;;;;;5116913;28;20192;-70
2022/09/05 06:04:10;;;;;;;8.70;7.50;;;22.80;90.20;;;;;;5120637;28;20192;-70
2022/09/05 06:07:27;;;;;;;7.57;6.97;;;23.20;89.80;;;;;;5120725;28;20204;-69
2022/09/05 06:10:20;;;;;;;11.43;7.33;;;23.80;86.70;;;;;;5094947;27;20219;-70
2022/09/05 06:13:30;;;;;;;8.70;6.80;;;24.50;83.60;;;;;;5121007;27;20220;-70
2022/09/05 06:16:55;;;;;;;8.73;6.17;;;25.20;80.60;;;;;;5114725;27;20191;-69
2022/09/05 06:19:22;;;;;;;8.53;6.50;;;25.50;78.80;;;;;;5120825;27;20310;-70
2022/09/05 06:22:32;;;;;;;6.57;5.60;;;25.60;78.20;;;;;;5112044;27;20636;-71
2022/09/05 06:25:24;;;;;;;7.07;5.97;;;25.60;77.50;;;;;;5120556;27;20222;-71
2022/09/05 06:28:18;;;;;;;6.23;5.70;;;25.50;77.40;;;;;;5105359;27;20266;-70
2022/09/05 06:31:09;;;;;;;10.70;6.30;;;25.40;78.00;;;;;;5117477;27;20217;-70
2022/09/05 06:34:10;;;;;;;7.57;5.70;;;25.20;78.60;;;;;;5121531;27;20217;-70
2022/09/05 06:37:55;;;;;;;15.63;6.90;;;25.10;79.00;;;;;;5110550;27;20544;-71
2022/09/05 06:40:31;;;;;;;9.47;5.87;;;25.00;79.40;;;;;;5030370;27;20224;-70
2022/09/05 06:43:27;;;;;;;6.93;5.77;;;25.00;79.80;;;;;;5116029;27;20229;-70
2022/09/05 06:45:57;;;;;;;6.20;5.63;;;25.00;79.80;;;;;;5128228;27;20196;-70
2022/09/05 06:48:40;;;;;;;6.57;5.90;;;25.00;79.90;;;;;;5107879;27;20513;-71
2022/09/05 06:51:44;;;;;;;10.20;7.50;;;25.00;79.60;;;;;;5121173;27;20323;-70
2022/09/05 06:54:57;;;;;;;7.10;6.40;;;25.10;79.50;;;;;;5083502;27;20222;-71
2022/09/05 06:58:03;;;;;;;10.53;6.43;;;25.20;79.30;;;;;;5103960;28;20854;-70
2022/09/05 07:00:48;;;;;;;9.57;6.60;;;25.30;79.00;;;;;;5122108;27;20938;-71
2022/09/05 07:03:40;;;;;;;7.73;6.87;;;25.40;78.70;;;;;;5116989;27;20652;-71
2022/09/05 07:06:16;;;;;;;7.00;6.33;;;25.50;78.50;;;;;;5115964;27;20701;-70
2022/09/05 07:09:01;;;;;;;9.57;5.80;;;25.50;78.30;;;;;;5108611;27;20198;-71
2022/09/05 07:11:37;;;;;;;6.70;6.10;;;25.60;77.60;;;;;;5105649;27;20231;-71
2022/09/05 07:14:18;;;;;;;8.47;6.20;;;25.70;77.80;;;;;;5102785;27;20201;-70
2022/09/05 07:17:04;;;;;;;7.93;7.23;;;25.80;78.00;;;;;;5119022;27;20189;-71
2022/09/05 07:19:34;;;;;;;7.70;6.50;;;25.80;78.60;;;;;;5117437;27;20239;-70
2022/09/05 07:22:13;;;;;;;8.70;6.33;;;25.90;77.80;;;;;;5117468;27;20223;-71
2022/09/05 07:25:05;;;;;;;7.47;5.77;;;26.00;77.80;;;;;;5121713;27;20200;-71
2022/09/05 07:27:40;;;;;;;6.00;5.50;;;26.00;77.50;;;;;;5125309;27;20648;-71
2022/09/05 07:30:27;;;;;;;12.43;6.30;;;26.20;77.70;;;;;;5115856;27;20222;-71
2022/09/05 07:32:57;;;;;;;6.63;5.80;;;26.30;77.60;;;;;;5088964;28;20310;-71
2022/09/05 07:35:29;;;;;;;9.03;5.20;;;26.40;77.10;;;;;;5122895;27;20286;-71
2022/09/05 07:38:31;;;;;;;7.23;5.07;;;26.50;76.70;;;;;;5078658;27;20295;-71
2022/09/05 07:41:32;;;;;;;6.63;5.00;;;26.60;76.30;;;;;;5104925;27;20210;-71
2022/09/05 07:44:14;;;;;;;5.67;4.60;;;26.80;75.80;;;;;;5104785;27;20213;-71
2022/09/05 07:46:45;;;;;;;4.60;4.20;;;26.80;74.70;;;;;;5100817;28;20560;-71
2022/09/05 07:49:17;;;;;;;5.47;5.03;;;26.90;75.60;;;;;;5089609;28;20661;-71
2022/09/05 07:51:54;;;;;;;6.63;5.13;;;27.00;75.00;;;;;;5100337;27;20221;-71
2022/09/05 07:54:45;;;;;;;4.17;3.57;;;27.10;74.20;;;;;;5122682;27;20195;-71
2022/09/05 07:57:40;;;;;;;6.13;4.77;;;27.20;74.40;;;;;;5099274;28;20577;-71
2022/09/05 08:00:21;;;;;;;4.63;3.80;;;27.40;74.20;;;;;;5119877;27;20222;-71
2022/09/05 08:03:07;;;;;;;5.43;3.70;;;27.50;74.00;;;;;;5090311;27;20220;-71
2022/09/05 08:05:41;;;;;;;7.70;3.97;;;27.70;73.30;;;;;;5114668;27;20199;-70
2022/09/05 08:08:13;;;;;;;4.43;3.27;;;27.80;73.20;;;;;;5100850;27;20217;-70
2022/09/05 08:10:52;;;;;;;6.67;3.17;;;28.00;73.30;;;;;;5113307;27;20204;-70
2022/09/05 08:13:42;;;;;;;3.97;3.67;;;28.20;73.10;;;;;;5116282;27;20204;-70
2022/09/05 08:16:19;;;;;;;4.00;3.70;;;28.30;72.50;;;;;;5116585;27;20252;-70
2022/09/05 08:19:22;;;;;;;5.60;3.30;;;28.50;72.00;;;;;;5113225;27;20325;-71
2022/09/05 08:21:52;;;;;;;9.20;3.90;;;28.70;71.30;;;;;;5088459;27;20204;-71
2022/09/05 08:24:38;;;;;;;5.00;3.60;;;28.90;70.80;;;;;;5119297;27;20188;-71
2022/09/05 08:27:35;;;;;;;7.53;3.57;;;29.00;69.10;;;;;;5097458;27;20216;-71
2022/09/05 08:30:09;;;;;;;6.93;3.57;;;29.10;69.80;;;;;;5047008;27;20192;-71
2022/09/05 08:32:53;;;;;;;6.43;3.10;;;29.10;70.00;;;;;;5100071;27;20295;-71
2022/09/05 08:36:00;;;;;;;5.07;2.93;;;29.20;69.70;;;;;;5104583;27;20223;-71
2022/09/05 08:38:31;;;;;;;5.03;2.97;;;29.30;68.40;;;;;;5084664;27;20553;-71
2022/09/05 08:41:38;;;;;;;7.07;3.37;;;29.40;68.40;;;;;;5104826;28;20261;-71
2022/09/05 08:44:31;;;;;;;4.13;2.87;;;29.50;68.30;;;;;;5119928;27;20195;-71
2022/09/05 08:47:39;;;;;;;4.73;3.10;;;29.60;66.10;;;;;;5120279;27;20201;-71
2022/09/05 08:50:39;;;;;;;4.73;3.00;;;29.50;67.20;;;;;;5122632;27;20208;-71
2022/09/05 08:53:15;;;;;;;7.27;3.00;;;29.50;67.30;;;;;;5106795;27;20220;-71
2022/09/05 08:56:04;;;;;;;3.67;2.67;;;29.60;66.50;;;;;;5119974;27;20236;-71
2022/09/05 08:58:41;;;;;;;2.60;2.30;;;29.80;66.00;;;;;;5116048;27;20200;-71
2022/09/05 09:01:23;;;;;;;5.53;2.73;;;29.80;64.70;;;;;;5121002;27;20195;-71
2022/09/05 09:04:05;;;;;;;2.70;2.50;;;30.00;64.20;;;;;;5117551;27;20200;-71
2022/09/05 09:06:52;;;;;;;7.37;2.50;;;30.00;62.70;;;;;;5117216;27;20196;-71
2022/09/05 09:09:59;;;;;;;3.80;2.50;;;30.20;63.60;;;;;;5116588;28;20188;-71
2022/09/05 09:12:42;;;;;;;3.83;2.43;;;30.30;63.20;;;;;;5119862;28;20560;-70
2022/09/05 09:15:54;;;;;;;2.50;2.30;;;30.50;61.50;;;;;;5095487;28;20204;-71
2022/09/05 09:18:32;;;;;;;3.60;2.23;;;30.50;60.20;;;;;;5092383;28;21450;-71
2022/09/05 09:21:24;;;;;;;3.80;2.23;;;30.70;59.60;;;;;;5115596;28;20267;-71
2022/09/05 09:24:25;;;;;;;2.83;2.20;;;30.80;58.40;;;;;;5086192;28;20665;-71
2022/09/05 09:27:01;;;;;;;2.53;2.30;;;30.70;58.50;;;;;;5089927;28;20211;-71
2022/09/05 09:29:33;;;;;;;2.87;2.27;;;30.70;57.20;;;;;;5090628;28;20207;-71
2022/09/05 09:32:05;;;;;;;4.13;2.10;;;30.60;57.90;;;;;;5115600;28;20220;-71
2022/09/05 09:34:40;;;;;;;2.13;1.97;;;30.60;57.50;;;;;;5092035;28;20257;-71
2022/09/05 09:37:27;;;;;;;2.70;2.50;;;30.70;58.60;;;;;;5094281;28;20188;-71
2022/09/05 09:40:38;;;;;;;4.47;2.70;;;30.70;58.30;;;;;;5114650;28;20228;-71
2022/09/05 09:43:13;;;;;;;2.93;2.20;;;30.80;58.40;;;;;;5111906;27;20224;-71
2022/09/05 09:46:02;;;;;;;4.10;2.53;;;30.90;58.00;;;;;;5120527;27;20632;-71
2022/09/05 09:49:07;;;;;;;3.07;2.30;;;31.00;57.80;;;;;;5126758;27;20638;-71
2022/09/05 09:51:57;;;;;;;2.77;2.27;;;31.10;55.40;;;;;;5112924;27;20679;-70
2022/09/05 09:54:43;;;;;;;3.97;2.50;;;31.10;52.80;;;;;;5102679;28;20196;-71
2022/09/05 09:57:52;;;;;;;3.83;2.20;;;30.90;55.10;;;;;;5121582;27;20203;-71
2022/09/05 10:00:22;;;;;;;2.30;2.10;;;30.80;55.40;;;;;;5094432;28;20515;-71
2022/09/05 10:03:11;;;;;;;1.80;1.70;;;30.90;55.50;;;;;;5098761;27;20204;-71
2022/09/05 10:06:41;;;;;;;3.90;2.20;;;30.90;54.80;;;;;;5108768;27;20548;-71
2022/09/05 10:09:59;;;;;;;2.23;2.03;;;30.90;55.60;;;;;;5098307;27;20207;-71
2022/09/05 10:13:04;;;;;;;4.43;2.13;;;30.90;55.10;;;;;;5121093;27;20289;-71
2022/09/05 10:15:40;;;;;;;3.10;2.30;;;30.90;54.90;;;;;;5117125;27;20272;-71
2022/09/05 10:18:29;;;;;;;2.60;2.10;;;31.00;56.00;;;;;;5092752;28;20258;-71
2022/09/05 10:21:27;;;;;;;3.33;2.70;;;31.00;56.00;;;;;;5122668;27;20205;-71
2022/09/05 10:24:14;;;;;;;3.97;2.07;;;31.20;55.50;;;;;;5102748;27;20554;-71
2022/09/05 10:27:11;;;;;;;3.20;2.30;;;31.30;54.90;;;;;;5111364;27;20218;-71
2022/09/05 10:29:42;;;;;;;3.13;2.07;;;31.50;55.60;;;;;;5102511;27;20231;-71
2022/09/05 10:32:32;;;;;;;2.57;1.93;;;31.70;55.10;;;;;;5106384;27;20232;-71
2022/09/05 10:35:34;;;;;;;3.33;2.20;;;31.70;54.20;;;;;;5111530;27;20204;-71
2022/09/05 10:38:10;;;;;;;2.47;1.97;;;31.90;53.40;;;;;;5091075;28;20201;-71
2022/09/05 10:40:42;;;;;;;2.57;2.20;;;32.00;53.00;;;;;;5120457;27;20205;-71
2022/09/05 10:43:32;;;;;;;3.70;2.77;;;32.00;53.10;;;;;;5117512;27;20201;-71
2022/09/05 10:46:28;;;;;;;3.53;2.40;;;32.00;52.20;;;;;;5102837;27;20209;-71
2022/09/05 10:49:17;;;;;;;2.87;2.57;;;32.00;51.40;;;;;;5087572;27;20219;-71
2022/09/05 10:51:51;;;;;;;3.77;2.57;;;31.90;52.90;;;;;;5119724;27;20191;-71
2022/09/05 10:54:40;;;;;;;2.70;2.07;;;32.00;52.90;;;;;;5087673;28;20299;-71
2022/09/05 10:57:36;;;;;;;3.60;2.50;;;32.00;52.00;;;;;;5104140;27;20287;-71
2022/09/05 11:00:21;;;;;;;6.27;2.80;;;32.00;51.40;;;;;;5087282;28;20200;-71
2022/09/05 11:03:17;;;;;;;3.20;2.30;;;32.00;51.90;;;;;;5109302;27;20252;-71
2022/09/05 11:05:58;;;;;;;3.60;2.20;;;32.00;52.50;;;;;;5123580;27;20626;-71
2022/09/05 11:08:37;;;;;;;2.70;2.00;;;32.10;51.90;;;;;;5117486;27;20191;-71
2022/09/05 11:11:17;;;;;;;3.30;2.00;;;32.20;52.20;;;;;;5119450;27;20593;-70
2022/09/05 11:14:11;;;;;;;3.87;2.13;;;32.20;51.10;;;;;;5102574;28;20240;-70
2022/09/05 11:17:00;;;;;;;2.50;2.20;;;32.30;50.40;;;;;;5105313;27;20196;-70
2022/09/05 11:19:54;;;;;;;2.67;2.10;;;32.30;51.40;;;;;;5117855;27;20562;-71
2022/09/05 11:22:25;;;;;;;3.17;1.70;;;32.40;51.50;;;;;;5086616;28;20231;-71
2022/09/05 11:24:56;;;;;;;8.80;1.90;;;32.30;50.40;;;;;;5117088;27;20317;-71
2022/09/05 11:27:43;;;;;;;4.87;2.07;;;32.30;50.10;;;;;;5118404;27;21097;-70
2022/09/05 11:30:26;;;;;;;4.67;1.93;;;32.20;49.50;;;;;;5100162;27;20208;-70
2022/09/05 11:33:21;;;;;;;7.20;2.10;;;32.20;50.10;;;;;;5113709;27;20249;-70
2022/09/05 11:36:17;;;;;;;2.20;1.50;;;32.20;51.40;;;;;;5119354;27;20582;-70
2022/09/05 11:39:15;;;;;;;2.30;2.10;;;32.00;50.40;;;;;;5104649;27;20211;-70
2022/09/05 11:42:20;;;;;;;4.20;1.67;;;31.90;50.70;;;;;;5101558;27;20197;-70
2022/09/05 11:44:47;;;;;;;2.90;1.73;;;32.00;50.60;;;;;;5106640;28;20531;-70
2022/09/05 11:47:41;;;;;;;1.77;1.50;;;32.10;50.60;;;;;;5125966;27;20511;-70
2022/09/05 11:50:48;;;;;;;3.40;2.50;;;32.20;50.00;;;;;;5081737;27;20205;-70
2022/09/05 11:53:17;;;;;;;3.10;1.87;;;32.20;49.50;;;;;;5115040;27;20303;-70
2022/09/05 11:55:45;;;;;;;1.93;1.63;;;32.10;49.90;;;;;;5122753;27;20286;-70
2022/09/05 11:58:24;;;;;;;4.77;2.00;;;32.10;50.00;;;;;;5106890;27;20205;-70
2022/09/05 12:01:30;;;;;;;4.07;1.93;;;32.00;49.80;;;;;;5118252;27;20684;-71
2022/09/05 12:04:34;;;;;;;2.63;1.80;;;32.00;51.00;;;;;;5122731;27;20641;-70
2022/09/05 12:07:19;;;;;;;1.50;1.40;;;32.10;49.10;;;;;;5102724;28;20242;-70
2022/09/05 12:10:33;;;;;;;4.83;1.80;;;32.00;48.40;;;;;;5103445;28;20517;-70
2022/09/05 12:13:25;;;;;;;2.40;1.50;;;32.00;49.10;;;;;;5041119;28;20677;-70
2022/09/05 12:15:57;;;;;;;2.57;1.93;;;32.00;49.90;;;;;;5109399;27;20626;-71
2022/09/05 12:18:43;;;;;;;2.60;1.60;;;32.10;51.00;;;;;;5100629;27;20291;-69
2022/09/05 12:21:24;;;;;;;4.90;1.77;;;32.20;48.80;;;;;;5121374;27;20200;-69
2022/09/05 12:24:07;;;;;;;3.93;1.67;;;32.20;49.20;;;;;;5103354;27;20197;-69
2022/09/05 12:27:00;;;;;;;2.13;1.87;;;32.30;49.50;;;;;;5105451;27;20204;-69
2022/09/05 12:29:54;;;;;;;1.70;1.60;;;32.30;49.10;;;;;;5106382;27;20197;-69
2022/09/05 12:32:27;;;;;;;3.30;2.03;;;32.30;49.30;;;;;;5089953;27;20224;-69
2022/09/05 12:35:30;;;;;;;2.80;1.47;;;32.40;49.00;;;;;;5110067;27;20196;-69
2022/09/05 12:38:20;;;;;;;2.23;1.90;;;32.40;49.60;;;;;;5118830;27;20196;-69
2022/09/05 12:41:27;;;;;;;2.57;1.80;;;32.40;50.20;;;;;;5093878;27;20282;-69
2022/09/05 12:44:35;;;;;;;2.80;1.57;;;32.40;49.20;;;;;;5107280;27;20283;-69
2022/09/05 12:47:16;;;;;;;4.87;2.40;;;32.40;49.00;;;;;;5115856;27;20214;-69
2022/09/05 12:50:19;;;;;;;1.60;1.50;;;32.50;48.40;;;;;;5086458;27;20210;-69
2022/09/05 12:53:00;;;;;;;2.93;1.63;;;32.60;48.50;;;;;;5044966;27;20558;-69
2022/09/05 12:55:43;;;;;;;3.93;2.03;;;32.60;49.10;;;;;;5103357;28;20195;-69
2022/09/05 12:58:34;;;;;;;1.63;1.53;;;32.60;49.30;;;;;;5113928;28;20199;-69
2022/09/05 13:02:02;;;;;;;2.00;1.90;;;32.50;48.60;;;;;;5117446;27;20211;-69
2022/09/05 13:04:56;;;;;;;2.43;1.80;;;32.40;48.20;;;;;;5109899;28;20225;-69
2022/09/05 13:07:57;;;;;;;6.57;1.67;;;32.30;49.20;;;;;;5113362;28;20293;-69
2022/09/05 13:10:32;;;;;;;5.53;2.13;;;32.30;47.90;;;;;;5122208;27;20268;-69
2022/09/05 13:13:28;;;;;;;8.60;2.07;;;32.20;48.40;;;;;;5104261;28;20215;-69
2022/09/05 13:16:21;;;;;;;5.87;1.87;;;32.10;48.70;;;;;;5118658;28;20219;-69
2022/09/05 13:18:54;;;;;;;1.83;1.30;;;32.00;49.50;;;;;;5101376;28;20233;-69
2022/09/05 13:21:25;;;;;;;4.00;1.50;;;32.00;49.50;;;;;;5094689;28;20205;-69
2022/09/05 13:24:03;;;;;;;1.73;1.60;;;32.00;48.60;;;;;;5100363;28;20196;-69
2022/09/05 13:26:50;;;;;;;3.43;1.70;;;32.00;48.70;;;;;;5104067;28;20209;-69
2022/09/05 13:29:32;;;;;;;5.27;2.07;;;31.90;48.50;;;;;;5103578;28;20202;-69
2022/09/05 13:32:32;;;;;;;1.67;1.57;;;31.90;49.70;;;;;;5105990;28;20615;-69
2022/09/05 13:35:35;;;;;;;4.37;1.63;;;32.00;49.20;;;;;;5119076;27;20254;-69
2022/09/05 13:38:40;;;;;;;1.90;1.50;;;32.00;49.60;;;;;;5094916;28;20240;-69
2022/09/05 13:41:26;;;;;;;3.23;1.93;;;32.00;49.50;;;;;;5096857;28;20661;-69
2022/09/05 13:43:58;;;;;;;4.60;1.87;;;32.00;48.60;;;;;;5097115;28;20203;-69
2022/09/05 13:47:09;;;;;;;4.43;2.03;;;31.90;48.30;;;;;;5095818;28;20213;-69
2022/09/05 13:50:16;;;;;;;2.20;1.70;;;31.90;48.10;;;;;;5103704;28;20200;-69
2022/09/05 13:52:48;;;;;;;5.30;2.10;;;31.90;49.00;;;;;;5102470;28;20200;-68
2022/09/05 13:55:15;;;;;;;2.43;1.50;;;32.00;48.80;;;;;;5097232;28;20291;-70
2022/09/05 13:58:21;;;;;;;3.10;2.03;;;32.00;49.10;;;;;;5101889;28;20284;-69
2022/09/05 14:01:07;;;;;;;2.50;1.73;;;32.00;49.70;;;;;;5104638;28;20520;-68
2022/09/05 14:03:55;;;;;;;4.37;3.03;;;31.90;49.20;;;;;;5106212;27;20197;-69
2022/09/05 14:06:47;;;;;;;5.27;1.67;;;31.90;49.40;;;;;;5096448;28;20635;-69
2022/09/05 14:09:20;;;;;;;3.67;1.60;;;31.80;50.50;;;;;;5101148;28;20212;-69
2022/09/05 14:12:16;;;;;;;2.53;1.70;;;31.80;50.10;;;;;;5093721;28;20227;-69
2022/09/05 14:14:46;;;;;;;1.83;1.47;;;31.80;49.80;;;;;;5100846;28;20225;-68
2022/09/05 14:17:55;;;;;;;2.80;1.87;;;31.70;50.20;;;;;;5104964;28;20213;-68
2022/09/05 14:23:37;;;;;;;4.40;2.00;;;31.80;49.80;;;;;;5072226;28;20287;-69
2022/09/05 14:26:13;;;;;;;3.40;1.87;;;31.90;50.10;;;;;;5082067;28;20292;-68
2022/09/05 14:29:01;;;;;;;7.03;1.60;;;31.80;49.60;;;;;;5071985;28;20690;-68
2022/09/05 14:31:45;;;;;;;1.53;1.33;;;31.80;49.70;;;;;;5065286;28;20209;-69
2022/09/05 14:34:57;;;;;;;4.20;1.90;;;31.80;49.60;;;;;;5080449;28;20229;-69
2022/09/05 14:38:07;;;;;;;4.40;2.13;;;31.80;49.70;;;;;;5082580;28;20219;-68